^^
Saratoga-Weather Station Historical Data
Daily Summary for July 7, 2020 Units:  Metric    English   Both
Daily Weekly Monthly Yearly Custom
  High: Low: Average:
Temperature: 11.9 °C 3.2 °C 6.6 °C
Dew Point: 8.5 °C 2.5 °C 5.2 °C
Humidity: 96% 76% 91%
Wind Speed: 9.7km/h 0km/h 0.6km/h
Wind Gust: 11.3km/h - -
Wind- - East
Pressure: 1026.8 hPa 1022.4 hPa -
Precipitation: 0.0 mm    
Historical Graphs
 
 
Tabular Data for July 7, 2020
Time Temperature Dew Point Pressure Wind Wind Speed Wind Gust Humidity Rainfall Rate (Hourly) solar
00:00 4.2 °C 3.3 °C 1026.8 hPa Calm     94% 0.0 mm 0 W/m2
00:06 4.2 °C 3.3 °C 1026.8 hPa Calm     94% 0.0 mm 0 W/m2
00:11 4.2 °C 3.3 °C 1026.8 hPa Calm     94% 0.0 mm 0 W/m2
00:16 4.1 °C 3.2 °C 1026.8 hPa Calm     94% 0.0 mm 0 W/m2
00:21 4.1 °C 3.2 °C 1026.8 hPa Calm     94% 0.0 mm 0 W/m2
00:26 4 °C 3.1 °C 1026.8 hPa Calm     94% 0.0 mm 0 W/m2
00:31 4 °C 3.1 °C 1026.8 hPa Calm     94% 0.0 mm 0 W/m2
00:36 4 °C 3.1 °C 1026.8 hPa Calm     94% 0.0 mm 0 W/m2
00:41 4.1 °C 3.2 °C 1026.8 hPa Calm     94% 0.0 mm 0 W/m2
00:46 4.1 °C 3.4 °C 1026.4 hPa Calm     95% 0.0 mm 0 W/m2
00:51 4.2 °C 3.5 °C 1026.4 hPa Calm     95% 0.0 mm 0 W/m2
00:56 4.3 °C 3.6 °C 1026.4 hPa East 1.4 km/h 3.2 km/h 95% 0.0 mm 0 W/m2
01:02 4.3 °C 3.6 °C 1026.4 hPa ESE 1.4 km/h 3.2 km/h 95% 0.0 mm 0 W/m2
01:07 4.3 °C 3.4 °C 1026.4 hPa ESE 4.8 km/h 4.8 km/h 94% 0.0 mm 0 W/m2
01:12 4.3 °C 3.4 °C 1026.4 hPa Calm   1.6 km/h 94% 0.0 mm 0 W/m2
01:17 4.3 °C 3.4 °C 1026.1 hPa ESE 1.4 km/h 3.2 km/h 94% 0.0 mm 0 W/m2
01:22 4.3 °C 3.4 °C 1026.1 hPa Calm     94% 0.0 mm 0 W/m2
01:27 4.3 °C 3.4 °C 1026.1 hPa Calm   3.2 km/h 94% 0.0 mm 0 W/m2
01:32 4.2 °C 3.3 °C 1026.1 hPa Calm   1.6 km/h 94% 0.0 mm 0 W/m2
01:37 4.2 °C 3.3 °C 1026.1 hPa Calm   1.6 km/h 94% 0.0 mm 0 W/m2
01:42 4.2 °C 3.3 °C 1026.1 hPa Calm   3.2 km/h 94% 0.0 mm 0 W/m2
01:47 4.2 °C 3.3 °C 1026.1 hPa Calm   1.6 km/h 94% 0.0 mm 0 W/m2
01:52 4.2 °C 3.3 °C 1026.1 hPa Calm   3.2 km/h 94% 0.0 mm 0 W/m2
01:57 4.2 °C 3.3 °C 1026.1 hPa Calm   1.6 km/h 94% 0.0 mm 0 W/m2
02:02 4.2 °C 3.3 °C 1026.1 hPa Calm   3.2 km/h 94% 0.0 mm 0 W/m2
02:07 4.1 °C 3.2 °C 1026.1 hPa Calm     94% 0.0 mm 0 W/m2
02:12 4.1 °C 3.2 °C 1026.1 hPa Calm     94% 0.0 mm 0 W/m2
02:17 4.1 °C 3.2 °C 1026.1 hPa Calm   1.6 km/h 94% 0.0 mm 0 W/m2
02:22 4 °C 3.1 °C 1026.1 hPa Calm   3.2 km/h 94% 0.0 mm 0 W/m2
02:27 4 °C 3.1 °C 1026.1 hPa ESE 1.4 km/h 3.2 km/h 94% 0.0 mm 0 W/m2
02:32 4 °C 3.1 °C 1026.1 hPa Calm     94% 0.0 mm 0 W/m2
02:37 3.9 °C 3 °C 1026.1 hPa Calm     94% 0.0 mm 0 W/m2
02:42 3.9 °C 3 °C 1026.1 hPa Calm     94% 0.0 mm 0 W/m2
02:47 3.9 °C 3 °C 1026.1 hPa Calm     94% 0.0 mm 0 W/m2
02:52 3.9 °C 3 °C 1026.1 hPa Calm     94% 0.0 mm 0 W/m2
02:57 3.8 °C 2.9 °C 1026.1 hPa ESE 3.2 km/h 3.2 km/h 94% 0.0 mm 0 W/m2
03:02 3.8 °C 3.1 °C 1026.1 hPa Calm   3.2 km/h 95% 0.0 mm 0 W/m2
03:08 3.8 °C 3.1 °C 1025.7 hPa ESE 1.4 km/h 3.2 km/h 95% 0.0 mm 0 W/m2
03:13 3.8 °C 3.1 °C 1025.7 hPa Calm   1.6 km/h 95% 0.0 mm 0 W/m2
03:18 3.8 °C 3.1 °C 1025.7 hPa ESE 1.4 km/h 3.2 km/h 95% 0.0 mm 0 W/m2
03:23 3.8 °C 2.9 °C 1025.7 hPa Calm     94% 0.0 mm 0 W/m2
03:28 3.8 °C 2.9 °C 1025.7 hPa Calm     94% 0.0 mm 0 W/m2
03:33 3.8 °C 2.9 °C 1025.7 hPa Calm     94% 0.0 mm 0 W/m2
03:38 3.7 °C 2.8 °C 1025.7 hPa Calm     94% 0.0 mm 0 W/m2
03:43 3.7 °C 3 °C 1025.7 hPa Calm     95% 0.0 mm 0 W/m2
03:48 3.7 °C 3 °C 1025.7 hPa Calm     95% 0.0 mm 0 W/m2
03:53 3.7 °C 3 °C 1025.7 hPa Calm     95% 0.0 mm 0 W/m2
03:58 3.7 °C 3 °C 1025.7 hPa Calm     95% 0.0 mm 0 W/m2
04:03 3.7 °C 3 °C 1025.7 hPa Calm     95% 0.0 mm 0 W/m2
04:08 3.7 °C 3 °C 1025.7 hPa Calm     95% 0.0 mm 0 W/m2
04:13 3.7 °C 3 °C 1025.7 hPa Calm     95% 0.0 mm 0 W/m2
04:18 3.7 °C 3 °C 1025.7 hPa Calm   1.6 km/h 95% 0.0 mm 0 W/m2
04:23 3.7 °C 3 °C 1025.7 hPa Calm     95% 0.0 mm 0 W/m2
04:28 3.7 °C 3 °C 1025.7 hPa ESE 1.4 km/h 3.2 km/h 95% 0.0 mm 0 W/m2
04:33 3.7 °C 3 °C 1025.7 hPa Calm     95% 0.0 mm 0 W/m2
04:38 3.7 °C 3 °C 1026.1 hPa Calm   3.2 km/h 95% 0.0 mm 0 W/m2
04:43 3.6 °C 2.9 °C 1026.1 hPa Calm     95% 0.0 mm 0 W/m2
04:48 3.6 °C 2.9 °C 1025.7 hPa Calm   1.6 km/h 95% 0.0 mm 0 W/m2
04:53 3.6 °C 2.9 °C 1025.7 hPa Calm     95% 0.0 mm 0 W/m2
04:58 3.5 °C 2.8 °C 1025.7 hPa Calm   1.6 km/h 95% 0.0 mm 0 W/m2
05:03 3.6 °C 2.9 °C 1025.7 hPa Calm     95% 0.0 mm 0 W/m2
05:08 3.5 °C 2.8 °C 1025.7 hPa Calm   1.6 km/h 95% 0.0 mm 0 W/m2
05:13 3.6 °C 2.9 °C 1025.7 hPa Calm     95% 0.0 mm 0 W/m2
05:18 3.6 °C 2.9 °C 1025.7 hPa Calm     95% 0.0 mm 0 W/m2
05:23 3.7 °C 3 °C 1025.7 hPa Calm     95% 0.0 mm 0 W/m2
05:28 3.7 °C 3 °C 1025.7 hPa Calm     95% 0.0 mm 0 W/m2
05:33 3.7 °C 3 °C 1025.7 hPa Calm     95% 0.0 mm 0 W/m2
05:38 3.7 °C 3 °C 1025.7 hPa Calm     95% 0.0 mm 0 W/m2
05:43 3.6 °C 2.9 °C 1025.7 hPa Calm     95% 0.0 mm 0 W/m2
05:48 3.6 °C 2.9 °C 1025.7 hPa Calm     95% 0.0 mm 0 W/m2
05:53 3.6 °C 2.9 °C 1025.7 hPa Calm     95% 0.0 mm 0 W/m2
05:58 3.6 °C 2.9 °C 1025.7 hPa Calm     95% 0.0 mm 0 W/m2
06:03 3.6 °C 2.9 °C 1025.4 hPa Calm     95% 0.0 mm 0 W/m2
06:08 3.6 °C 2.9 °C 1025.4 hPa Calm     95% 0.0 mm 0 W/m2
06:13 3.6 °C 2.9 °C 1025.4 hPa Calm     95% 0.0 mm 0 W/m2
06:18 3.6 °C 2.9 °C 1025.4 hPa Calm     95% 0.0 mm 0 W/m2
06:23 3.6 °C 2.9 °C 1025.4 hPa Calm     95% 0.0 mm 0 W/m2
06:28 3.6 °C 2.9 °C 1025.4 hPa Calm     95% 0.0 mm 0 W/m2
06:33 3.6 °C 2.9 °C 1025.4 hPa Calm     95% 0.0 mm 0 W/m2
06:39 3.5 °C 2.8 °C 1025.1 hPa Calm     95% 0.0 mm 0 W/m2
06:44 3.4 °C 2.7 °C 1025.1 hPa Calm     95% 0.0 mm 0 W/m2
06:49 3.4 °C 2.7 °C 1025.1 hPa Calm     95% 0.0 mm 0 W/m2
06:54 3.3 °C 2.6 °C 1025.4 hPa Calm     95% 0.0 mm 0 W/m2
06:59 3.2 °C 2.5 °C 1025.1 hPa Calm     95% 0.0 mm 0 W/m2
07:04 3.2 °C 2.5 °C 1025.1 hPa Calm     95% 0.0 mm 0 W/m2
07:09 3.2 °C 2.5 °C 1025.4 hPa Calm     95% 0.0 mm 0 W/m2
07:14 3.2 °C 2.5 °C 1025.4 hPa Calm     95% 0.0 mm 0 W/m2
07:19 3.2 °C 2.5 °C 1025.4 hPa Calm     95% 0.0 mm 0 W/m2
07:24 3.2 °C 2.6 °C 1025.4 hPa Calm     96% 0.0 mm 0 W/m2
07:29 3.3 °C 2.7 °C 1025.4 hPa Calm     96% 0.0 mm 0 W/m2
07:34 3.3 °C 2.7 °C 1025.4 hPa Calm     96% 0.0 mm 0 W/m2
07:39 3.4 °C 2.8 °C 1025.4 hPa Calm     96% 0.0 mm 5 W/m2
07:44 3.4 °C 2.8 °C 1025.7 hPa Calm     96% 0.0 mm 7 W/m2
07:49 3.4 °C 2.8 °C 1025.7 hPa Calm     96% 0.0 mm 9 W/m2
07:54 3.4 °C 2.8 °C 1025.7 hPa Calm     96% 0.0 mm 12 W/m2
07:59 3.4 °C 2.8 °C 1025.7 hPa Calm     96% 0.0 mm 16 W/m2
08:04 3.5 °C 2.9 °C 1025.7 hPa Calm   3.2 km/h 96% 0.0 mm 18 W/m2
08:09 3.6 °C 3 °C 1025.7 hPa ESE 3.2 km/h 3.2 km/h 96% 0.0 mm 21 W/m2
08:14 3.7 °C 3.1 °C 1025.7 hPa Calm     96% 0.0 mm 25 W/m2
08:19 3.8 °C 3.2 °C 1025.7 hPa Calm   3.2 km/h 96% 0.0 mm 26 W/m2
08:24 3.9 °C 3.3 °C 1025.7 hPa Calm     96% 0.0 mm 30 W/m2
08:29 3.9 °C 3.3 °C 1025.7 hPa Calm   1.6 km/h 96% 0.0 mm 33 W/m2
08:34 4.1 °C 3.5 °C 1025.7 hPa Calm     96% 0.0 mm 35 W/m2
08:39 4.1 °C 3.5 °C 1025.4 hPa Calm     96% 0.0 mm 39 W/m2
08:44 4.2 °C 3.6 °C 1025.4 hPa Calm   3.2 km/h 96% 0.0 mm 42 W/m2
08:55 4.3 °C 3.7 °C 1025.4 hPa Calm   1.6 km/h 96% 0.0 mm 58 W/m2
09:00 4.4 °C 3.8 °C 1025.4 hPa Calm     96% 0.0 mm 49 W/m2
09:05 4.5 °C 3.9 °C 1025.4 hPa ENE 3.2 km/h 3.2 km/h 96% 0.0 mm 51 W/m2
09:10 4.6 °C 4 °C 1025.4 hPa East 1.4 km/h 3.2 km/h 96% 0.0 mm 53 W/m2
09:15 4.7 °C 4.1 °C 1025.4 hPa Calm   1.6 km/h 96% 0.0 mm 54 W/m2
09:20 4.7 °C 4.1 °C 1025.4 hPa East 1.4 km/h 1.6 km/h 96% 0.0 mm 56 W/m2
09:25 4.8 °C 4.2 °C 1025.4 hPa East 1.4 km/h 1.6 km/h 96% 0.0 mm 58 W/m2
09:30 5 °C 4.4 °C 1025.4 hPa Calm   4.8 km/h 96% 0.0 mm 58 W/m2
09:35 5.2 °C 4.6 °C 1025.7 hPa Calm     96% 0.0 mm 62 W/m2
09:40 5.3 °C 4.7 °C 1025.4 hPa East 1.4 km/h 1.6 km/h 96% 0.0 mm 62 W/m2
09:45 5.4 °C 4.8 °C 1025.4 hPa Calm   1.6 km/h 96% 0.0 mm 63 W/m2
09:50 5.6 °C 5 °C 1025.4 hPa Calm   3.2 km/h 96% 0.0 mm 63 W/m2
09:55 5.7 °C 5 °C 1025.4 hPa Calm   3.2 km/h 95% 0.0 mm 65 W/m2
10:00 5.8 °C 5.1 °C 1025.4 hPa SE 4.7 km/h 4.8 km/h 95% 0.0 mm 69 W/m2
10:05 6 °C 5.3 °C 1025.4 hPa SE 1.4 km/h 1.6 km/h 95% 0.0 mm 76 W/m2
10:10 6.1 °C 5.4 °C 1025.4 hPa ESE 1.4 km/h 4.8 km/h 95% 0.0 mm 70 W/m2
10:15 6.3 °C 5.4 °C 1025.7 hPa East 4.7 km/h 4.8 km/h 94% 0.0 mm 69 W/m2
10:20 6.5 °C 5.6 °C 1025.4 hPa ESE 1.4 km/h 3.2 km/h 94% 0.0 mm 70 W/m2
10:25 6.7 °C 5.6 °C 1025.7 hPa ESE 4.7 km/h 6.4 km/h 93% 0.0 mm 77 W/m2
10:30 6.8 °C 5.7 °C 1025.4 hPa NE 3.2 km/h 4.8 km/h 93% 0.0 mm 67 W/m2
10:35 7.1 °C 5.9 °C 1025.4 hPa ESE 4.7 km/h 4.8 km/h 92% 0.0 mm 74 W/m2
10:40 7.2 °C 5.8 °C 1025.4 hPa ENE 1.4 km/h 6.4 km/h 91% 0.0 mm 76 W/m2
10:45 7.3 °C 5.8 °C 1025.4 hPa Calm   1.6 km/h 90% 0.0 mm 88 W/m2
10:50 7.4 °C 5.7 °C 1025.1 hPa ENE 1.4 km/h 11.3 km/h 89% 0.0 mm 79 W/m2
10:55 7.6 °C 5.9 °C 1025.1 hPa Calm   4.8 km/h 89% 0.0 mm 84 W/m2
11:00 7.7 °C 6 °C 1025.1 hPa East 1.4 km/h 9.7 km/h 89% 0.0 mm 91 W/m2
11:05 7.8 °C 6.1 °C 1025.1 hPa ESE 3.2 km/h 4.8 km/h 89% 0.0 mm 102 W/m2
11:10 7.9 °C 6 °C 1025.1 hPa Calm   6.4 km/h 88% 0.0 mm 104 W/m2
11:15 8.1 °C 6.2 °C 1025.1 hPa Calm   1.6 km/h 88% 0.0 mm 104 W/m2
11:20 8.3 °C 6.3 °C 1025.1 hPa East 1.4 km/h 6.4 km/h 87% 0.0 mm 100 W/m2
11:25 8.4 °C 6.4 °C 1024.7 hPa ESE 1.4 km/h 4.8 km/h 87% 0.0 mm 100 W/m2
11:30 8.5 °C 6.3 °C 1025.1 hPa East 4.7 km/h 6.4 km/h 86% 0.0 mm 102 W/m2
11:36 8.7 °C 6.3 °C 1024.7 hPa Calm   11.3 km/h 85% 0.0 mm 95 W/m2
11:41 8.7 °C 6.3 °C 1024.7 hPa ESE 3.2 km/h 4.8 km/h 85% 0.0 mm 86 W/m2
11:46 8.8 °C 6.4 °C 1024.7 hPa ENE 3.2 km/h 3.2 km/h 85% 0.0 mm 105 W/m2
11:51 8.9 °C 6.3 °C 1024.4 hPa NNE 3.2 km/h 3.2 km/h 84% 0.0 mm 83 W/m2
11:56 9.1 °C 6.5 °C 1024.4 hPa NE 1.4 km/h 6.4 km/h 84% 0.0 mm 84 W/m2
12:01 9.2 °C 6.6 °C 1024.4 hPa NE 1.4 km/h 6.4 km/h 84% 0.0 mm 88 W/m2
12:06 9.3 °C 6.7 °C 1024.4 hPa Calm   3.2 km/h 84% 0.0 mm 98 W/m2
12:11 9.3 °C 6.6 °C 1024.4 hPa ESE 4.7 km/h 8 km/h 83% 0.0 mm 79 W/m2
12:16 9.4 °C 6.7 °C 1024.4 hPa SE 1.4 km/h 4.8 km/h 83% 0.0 mm 79 W/m2
12:21 9.5 °C 6.8 °C 1024.4 hPa Calm   3.2 km/h 83% 0.0 mm 72 W/m2
12:26 9.6 °C 6.7 °C 1024.0 hPa SE 3.2 km/h 4.8 km/h 82% 0.0 mm 77 W/m2
12:31 9.7 °C 6.8 °C 1024.0 hPa East 1.4 km/h 6.4 km/h 82% 0.0 mm 74 W/m2
12:36 9.8 °C 6.9 °C 1024.0 hPa Calm   1.6 km/h 82% 0.0 mm 72 W/m2
12:41 9.9 °C 7 °C 1024.0 hPa SE 3.2 km/h 6.4 km/h 82% 0.0 mm 70 W/m2
12:46 10 °C 7.1 °C 1024.0 hPa East 4.7 km/h 4.8 km/h 82% 0.0 mm 69 W/m2
12:51 10.1 °C 7 °C 1024.0 hPa SSE 1.4 km/h 6.4 km/h 81% 0.0 mm 72 W/m2
12:56 10.2 °C 7.1 °C 1023.7 hPa ESE 1.4 km/h 4.8 km/h 81% 0.0 mm 74 W/m2
13:01 10.3 °C 7.2 °C 1023.7 hPa ESE 1.4 km/h 3.2 km/h 81% 0.0 mm 83 W/m2
13:06 10.4 °C 7.3 °C 1023.7 hPa SE 3.2 km/h 6.4 km/h 81% 0.0 mm 97 W/m2
13:11 10.6 °C 7.3 °C 1023.7 hPa NE 1.4 km/h 4.8 km/h 80% 0.0 mm 72 W/m2
13:16 10.7 °C 7.4 °C 1023.7 hPa Calm   4.8 km/h 80% 0.0 mm 69 W/m2
13:21 10.7 °C 7.4 °C 1023.7 hPa Calm   3.2 km/h 80% 0.0 mm 72 W/m2
13:26 10.8 °C 7.5 °C 1023.4 hPa SE 1.4 km/h 4.8 km/h 80% 0.0 mm 74 W/m2
13:31 10.8 °C 7.5 °C 1023.4 hPa East 1.4 km/h 1.6 km/h 80% 0.0 mm 83 W/m2
13:36 10.9 °C 7.6 °C 1023.4 hPa ENE 3.2 km/h 4.8 km/h 80% 0.0 mm 97 W/m2
13:41 11.1 °C 7.8 °C 1023.4 hPa ENE 1.4 km/h 8 km/h 80% 0.0 mm 105 W/m2
13:46 11.3 °C 7.8 °C 1023.4 hPa East 3.2 km/h 4.8 km/h 79% 0.0 mm 95 W/m2
13:51 11.3 °C 7.8 °C 1023.4 hPa East 3.2 km/h 6.4 km/h 79% 0.0 mm 95 W/m2
13:56 11.5 °C 7.8 °C 1023.4 hPa East 1.4 km/h 6.4 km/h 78% 0.0 mm 91 W/m2
14:01 11.6 °C 7.9 °C 1023.4 hPa NE 1.4 km/h 4.8 km/h 78% 0.0 mm 88 W/m2
14:06 11.7 °C 8 °C 1023.0 hPa ENE 3.2 km/h 4.8 km/h 78% 0.0 mm 81 W/m2
14:11 11.8 °C 8.1 °C 1023.0 hPa ENE 4.7 km/h 4.8 km/h 78% 0.0 mm 81 W/m2
14:16 11.8 °C 7.9 °C 1023.0 hPa Calm   1.6 km/h 77% 0.0 mm 70 W/m2
14:21 11.9 °C 8 °C 1023.0 hPa Calm   3.2 km/h 77% 0.0 mm 67 W/m2
14:26 11.9 °C 7.8 °C 1023.0 hPa ENE 1.4 km/h 3.2 km/h 76% 0.0 mm 63 W/m2
14:31 11.9 °C 8.2 °C 1023.0 hPa East 3.2 km/h 3.2 km/h 78% 0.0 mm 67 W/m2
14:36 11.9 °C 8.4 °C 1023.0 hPa ENE 1.4 km/h 1.6 km/h 79% 0.0 mm 67 W/m2
14:41 11.8 °C 8.3 °C 1023.0 hPa Calm     79% 0.0 mm 65 W/m2
14:46 11.7 °C 8.4 °C 1022.7 hPa Calm   4.8 km/h 80% 0.0 mm 63 W/m2
14:51 11.7 °C 8.4 °C 1022.7 hPa ENE 1.4 km/h 3.2 km/h 80% 0.0 mm 60 W/m2
14:56 11.6 °C 8.3 °C 1023.0 hPa East 9.7 km/h 9.7 km/h 80% 0.0 mm 58 W/m2
15:01 11.6 °C 8.5 °C 1022.7 hPa Calm     81% 0.0 mm 60 W/m2
15:07 11.4 °C 8.3 °C 1023.0 hPa Calm   3.2 km/h 81% 0.0 mm 58 W/m2
15:12 11.4 °C 8.3 °C 1022.7 hPa ESE 1.4 km/h 1.6 km/h 81% 0.0 mm 54 W/m2
15:17 11.3 °C 8.3 °C 1022.7 hPa Calm   1.6 km/h 82% 0.0 mm 51 W/m2
15:22 11.2 °C 8.2 °C 1022.7 hPa Calm     82% 0.0 mm 47 W/m2
15:27 11.1 °C 8.3 °C 1022.7 hPa Calm     83% 0.0 mm 46 W/m2
15:32 11 °C 8.2 °C 1022.7 hPa Calm     83% 0.0 mm 44 W/m2
15:37 10.8 °C 8.2 °C 1022.7 hPa Calm     84% 0.0 mm 44 W/m2
15:42 10.7 °C 8.1 °C 1022.7 hPa ESE 1.4 km/h 3.2 km/h 84% 0.0 mm 44 W/m2
15:47 10.7 °C 8.3 °C 1022.7 hPa Calm   1.6 km/h 85% 0.0 mm 46 W/m2
15:52 10.5 °C 8.1 °C 1022.7 hPa Calm   1.6 km/h 85% 0.0 mm 47 W/m2
15:57 10.4 °C 8.2 °C 1022.7 hPa Calm     86% 0.0 mm 47 W/m2
16:02 10.4 °C 8.2 °C 1022.7 hPa ESE 1.4 km/h 1.6 km/h 86% 0.0 mm 47 W/m2
16:07 10.3 °C 8.1 °C 1022.4 hPa Calm     86% 0.0 mm 46 W/m2
16:12 10.3 °C 8.1 °C 1022.7 hPa Calm   1.6 km/h 86% 0.0 mm 40 W/m2
16:17 10.2 °C 8 °C 1022.7 hPa ESE 1.4 km/h 1.6 km/h 86% 0.0 mm 35 W/m2
16:22 10.2 °C 8.1 °C 1022.7 hPa ESE 1.4 km/h 1.6 km/h 87% 0.0 mm 30 W/m2
16:27 10.1 °C 8 °C 1022.7 hPa Calm     87% 0.0 mm 26 W/m2
16:32 10 °C 7.9 °C 1022.7 hPa ESE 1.4 km/h 1.6 km/h 87% 0.0 mm 23 W/m2
16:37 9.9 °C 7.8 °C 1022.7 hPa ESE 1.4 km/h 1.6 km/h 87% 0.0 mm 19 W/m2
16:42 9.9 °C 7.8 °C 1022.7 hPa ESE 1.4 km/h 3.2 km/h 87% 0.0 mm 16 W/m2
16:47 9.8 °C 7.7 °C 1022.4 hPa ESE 1.4 km/h 1.6 km/h 87% 0.0 mm 11 W/m2
16:52 9.7 °C 7.8 °C 1022.4 hPa ESE 1.4 km/h 1.6 km/h 88% 0.0 mm 7 W/m2
16:57 9.6 °C 7.7 °C 1022.4 hPa ESE 1.4 km/h 1.6 km/h 88% 0.0 mm 5 W/m2
17:02 9.5 °C 7.6 °C 1022.4 hPa Calm   1.6 km/h 88% 0.0 mm 0 W/m2
17:07 9.3 °C 7.4 °C 1022.4 hPa Calm     88% 0.0 mm 0 W/m2
17:12 9.2 °C 7.3 °C 1022.4 hPa ESE 1.4 km/h 1.6 km/h 88% 0.0 mm 0 W/m2
17:17 9.1 °C 7.4 °C 1022.4 hPa Calm     89% 0.0 mm 0 W/m2
17:23 8.9 °C 7.2 °C 1022.4 hPa Calm     89% 0.0 mm 0 W/m2
17:28 8.8 °C 7.1 °C 1022.4 hPa Calm     89% 0.0 mm 0 W/m2
17:33 8.7 °C 7 °C 1022.4 hPa ESE 1.4 km/h 1.6 km/h 89% 0.0 mm 0 W/m2
17:38 8.7 °C 7.2 °C 1022.4 hPa Calm   1.6 km/h 90% 0.0 mm 0 W/m2
17:43 8.6 °C 7.1 °C 1022.4 hPa Calm     90% 0.0 mm 0 W/m2
17:48 8.4 °C 6.9 °C 1022.4 hPa Calm   1.6 km/h 90% 0.0 mm 0 W/m2
17:53 8.4 °C 7 °C 1022.4 hPa Calm   1.6 km/h 91% 0.0 mm 0 W/m2
17:58 8.4 °C 7 °C 1022.4 hPa Calm     91% 0.0 mm 0 W/m2
18:03 8.3 °C 6.9 °C 1022.4 hPa Calm     91% 0.0 mm 0 W/m2
18:08 8.3 °C 6.9 °C 1022.4 hPa Calm     91% 0.0 mm 0 W/m2
18:13 8.2 °C 6.8 °C 1022.7 hPa Calm     91% 0.0 mm 0 W/m2
18:18 8.2 °C 6.8 °C 1022.7 hPa Calm     91% 0.0 mm 0 W/m2
18:23 8.1 °C 6.7 °C 1022.7 hPa Calm     91% 0.0 mm 0 W/m2
18:28 8 °C 6.6 °C 1022.7 hPa Calm     91% 0.0 mm 0 W/m2
18:33 7.9 °C 6.7 °C 1022.7 hPa Calm     92% 0.0 mm 0 W/m2
18:38 7.9 °C 6.7 °C 1022.7 hPa Calm     92% 0.0 mm 0 W/m2
18:43 7.8 °C 6.6 °C 1022.7 hPa Calm     92% 0.0 mm 0 W/m2
18:48 7.7 °C 6.5 °C 1022.7 hPa Calm     92% 0.0 mm 0 W/m2
18:53 7.7 °C 6.5 °C 1022.7 hPa Calm     92% 0.0 mm 0 W/m2
18:58 7.7 °C 6.6 °C 1022.7 hPa Calm     93% 0.0 mm 0 W/m2
19:03 7.6 °C 6.5 °C 1022.7 hPa Calm     93% 0.0 mm 0 W/m2
19:08 7.6 °C 6.5 °C 1022.7 hPa Calm     93% 0.0 mm 0 W/m2
19:13 7.5 °C 6.4 °C 1022.7 hPa Calm     93% 0.0 mm 0 W/m2
19:18 7.4 °C 6.3 °C 1022.7 hPa Calm     93% 0.0 mm 0 W/m2
19:23 7.4 °C 6.3 °C 1022.7 hPa Calm     93% 0.0 mm 0 W/m2
19:28 7.4 °C 6.3 °C 1022.7 hPa Calm     93% 0.0 mm 0 W/m2
19:33 7.3 °C 6.4 °C 1022.7 hPa Calm     94% 0.0 mm 0 W/m2
19:38 7.3 °C 6.4 °C 1022.7 hPa Calm     94% 0.0 mm 0 W/m2
19:43 7.3 °C 6.2 °C 1022.7 hPa Calm     93% 0.0 mm 0 W/m2
19:48 7.2 °C 6.3 °C 1022.7 hPa Calm     94% 0.0 mm 0 W/m2
19:53 7.2 °C 6.3 °C 1022.7 hPa Calm     94% 0.0 mm 0 W/m2
19:58 7.2 °C 6.3 °C 1022.7 hPa Calm     94% 0.0 mm 0 W/m2
20:03 7.1 °C 6.2 °C 1022.7 hPa Calm     94% 0.0 mm 0 W/m2
20:08 7.1 °C 6.2 °C 1022.7 hPa Calm     94% 0.0 mm 0 W/m2
20:13 7 °C 6.1 °C 1022.7 hPa Calm     94% 0.0 mm 0 W/m2
20:18 6.9 °C 6 °C 1022.7 hPa Calm     94% 0.0 mm 0 W/m2
20:23 6.9 °C 6 °C 1022.7 hPa Calm     94% 0.0 mm 0 W/m2
20:28 6.8 °C 5.9 °C 1022.7 hPa Calm     94% 0.0 mm 0 W/m2
20:33 6.7 °C 5.8 °C 1023.0 hPa Calm     94% 0.0 mm 0 W/m2
20:39 6.7 °C 5.8 °C 1022.7 hPa Calm     94% 0.0 mm 0 W/m2
20:44 6.6 °C 5.7 °C 1022.7 hPa Calm     94% 0.0 mm 0 W/m2
20:49 6.6 °C 5.7 °C 1022.7 hPa Calm     94% 0.0 mm 0 W/m2
20:54 6.6 °C 5.9 °C 1022.7 hPa Calm     95% 0.0 mm 0 W/m2
20:59 6.6 °C 5.9 °C 1022.7 hPa Calm     95% 0.0 mm 0 W/m2
21:04 6.7 °C 6 °C 1022.7 hPa Calm     95% 0.0 mm 0 W/m2
21:09 6.6 °C 5.9 °C 1022.7 hPa Calm     95% 0.0 mm 0 W/m2
21:14 6.6 °C 5.9 °C 1022.7 hPa Calm     95% 0.0 mm 0 W/m2
21:19 6.6 °C 5.9 °C 1022.7 hPa Calm     95% 0.0 mm 0 W/m2
21:24 6.6 °C 5.9 °C 1022.7 hPa Calm     95% 0.0 mm 0 W/m2
21:29 6.6 °C 5.9 °C 1022.7 hPa Calm     95% 0.0 mm 0 W/m2
21:34 6.6 °C 5.9 °C 1023.0 hPa Calm     95% 0.0 mm 0 W/m2
21:39 6.6 °C 5.9 °C 1023.0 hPa Calm     95% 0.0 mm 0 W/m2
21:44 6.6 °C 5.9 °C 1023.0 hPa Calm     95% 0.0 mm 0 W/m2
21:49 6.6 °C 5.9 °C 1022.7 hPa Calm     95% 0.0 mm 0 W/m2
21:54 6.5 °C 5.8 °C 1022.7 hPa Calm     95% 0.0 mm 0 W/m2
21:59 6.4 °C 5.7 °C 1023.0 hPa Calm     95% 0.0 mm 0 W/m2
22:04 6.4 °C 5.7 °C 1023.0 hPa Calm     95% 0.0 mm 0 W/m2
22:09 6.3 °C 5.6 °C 1023.0 hPa Calm     95% 0.0 mm 0 W/m2
22:14 6.3 °C 5.6 °C 1023.0 hPa Calm     95% 0.0 mm 0 W/m2
22:19 6.3 °C 5.6 °C 1023.0 hPa Calm     95% 0.0 mm 0 W/m2
22:24 6.3 °C 5.6 °C 1023.0 hPa Calm     95% 0.0 mm 0 W/m2
22:29 6.2 °C 5.5 °C 1023.0 hPa Calm     95% 0.0 mm 0 W/m2
22:34 6.2 °C 5.5 °C 1023.0 hPa Calm     95% 0.0 mm 0 W/m2
22:39 6.2 °C 5.5 °C 1023.0 hPa Calm     95% 0.0 mm 0 W/m2
22:44 6.1 °C 5.4 °C 1023.0 hPa Calm     95% 0.0 mm 0 W/m2
22:49 6.1 °C 5.4 °C 1023.0 hPa Calm     95% 0.0 mm 0 W/m2
22:54 6 °C 5.3 °C 1023.0 hPa Calm     95% 0.0 mm 0 W/m2
22:59 6 °C 5.3 °C 1023.0 hPa Calm     95% 0.0 mm 0 W/m2
23:04 5.9 °C 5.2 °C 1023.0 hPa Calm     95% 0.0 mm 0 W/m2
23:09 5.9 °C 5.2 °C 1023.0 hPa Calm     95% 0.0 mm 0 W/m2
23:14 5.9 °C 5.2 °C 1023.0 hPa Calm     95% 0.0 mm 0 W/m2
23:19 5.9 °C 5.3 °C 1023.0 hPa Calm     96% 0.0 mm 0 W/m2
23:24 5.9 °C 5.3 °C 1023.4 hPa Calm     96% 0.0 mm 0 W/m2
23:29 5.8 °C 5.2 °C 1023.0 hPa Calm     96% 0.0 mm 0 W/m2
23:34 5.8 °C 5.2 °C 1023.0 hPa Calm     96% 0.0 mm 0 W/m2
23:39 5.8 °C 5.2 °C 1023.0 hPa Calm     96% 0.0 mm 0 W/m2
23:44 5.8 °C 5.2 °C 1023.0 hPa Calm     96% 0.0 mm 0 W/m2
23:49 5.9 °C 5.3 °C 1023.0 hPa Calm     96% 0.0 mm 0 W/m2
23:54 5.9 °C 5.3 °C 1023.0 hPa Calm     96% 0.0 mm 0 W/m2
23:59 5.9 °C 5.3 °C 1023.0 hPa Calm     96% 0.0 mm 0 W/m2
Juneau County Weather
Compliments of Weather Underground - 4 mb